Terminal Aerodrome Forecast
Issued by NWS San Angelo, TX

Home | Current Version | Previous Version | Text Only | Print | Product List | Glossary On
Versions: 1 2 3 4 5 6 7 8 9 10 11 12 13 14 15 16 17 18 19 20
000
FTUS44 KSJT 021100
TAFABI
TAF
KABI 021120Z 0212/0312 19010KT P6SM SCT250
      TEMPO 0212/0215 SCT020
     FM021500 20015G23KT P6SM SCT250
     FM021700 19015G23KT P6SM FEW050
     FM030200 17010KT P6SM BKN250=

USA.gov is the U.S. government's official web portal to all federal, state and local government web resources and services.